Hauptseite
METAR-TAF:

METAR-TAF

Flughäfen :

Fliegerhorst Nordholz

Nordholz, Deutschland

Breite: 53-46N, Länge: 008-40E, Höhe: 23 m

Beobachtung

Neuester Wetterbericht von vor 1 Stunde und 14 Minuten, um 08:20 UTC
Wind 6 kt aus Süd/Südwest
Temperatur 14°C
Luftfeuchtigkeit 82%
Luftdruck 1022 hPa
Sichtweite 10 km oder mehr
Leicht bewölkt in der Höhe von 1500 ft

METAR: ETMN 280820Z 21006KT 9999 FEW015 14/11 Q1022 BLU+

Zeit: 11:34 (09:34 UTC)

Prognose

Neuester Wetterbericht von vor 2 Stunden und 21 Minuten, um 07:13 UTC
Gültige Prognose vom 28 um 08 UTC bis 28 um 17 UTC
Wind 6 kt aus Süd/Südwest
Sichtweite 10 km oder mehr
Leicht bewölkt in der Höhe von 2000 ft
Leicht bewölkt in der Höhe von 23000 ft

TAF: ETMN 280713Z 2808/2817 21006KT 9999 NSW FEW020 FEW230

Wetterbeobachtungen und Prognosen von mehr als 4000 Flughäfen (METAR und TAF Bericht).

Die verfügbaren Stationen werden durch gelbe und rote Markierungen auf der Karte dargestellt.

Führen Sie die Maus auf sie, um den Namen der Station zu sehen.

Darauf klicken, um die Beobachtung von Wetterbeobachtungen und Prognosen zu sehen.

Um die Karte zu ändern : klicken Sie auf den grünen Tasten mit einem schwarzen Kreuz Zum Vergrößern, auf den grünen Button mit einem Gedankenstrich zu verkleinern, oder auf die grünen Pfeile für benachbarte Karten.


METAR-TAF: